sensor_id;sensor_type;location;lat;lon;timestamp;temperature;humidity
5846;DHT22;2949;50.778;7.094;2023-02-01T00:01:32;5.70;99.90
5846;DHT22;2949;50.778;7.094;2023-02-01T00:03:58;5.80;99.90
5846;DHT22;2949;50.778;7.094;2023-02-01T00:06:23;5.70;99.90
5846;DHT22;2949;50.778;7.094;2023-02-01T00:08:52;5.70;99.90
5846;DHT22;2949;50.778;7.094;2023-02-01T00:11:18;5.70;99.90
5846;DHT22;2949;50.778;7.094;2023-02-01T00:13:44;5.60;99.90
5846;DHT22;2949;50.778;7.094;2023-02-01T00:16:10;5.50;99.90
5846;DHT22;2949;50.778;7.094;2023-02-01T00:18:37;5.30;99.90
5846;DHT22;2949;50.778;7.094;2023-02-01T00:21:06;5.20;99.90
5846;DHT22;2949;50.778;7.094;2023-02-01T00:23:33;5.00;99.90
5846;DHT22;2949;50.778;7.094;2023-02-01T00:26:04;4.90;99.90
5846;DHT22;2949;50.778;7.094;2023-02-01T00:28:30;4.80;99.90
5846;DHT22;2949;50.778;7.094;2023-02-01T00:30:59;4.90;99.90
5846;DHT22;2949;50.778;7.094;2023-02-01T00:33:26;4.90;99.90
5846;DHT22;2949;50.778;7.094;2023-02-01T00:35:59;4.90;99.90
5846;DHT22;2949;50.778;7.094;2023-02-01T00:38:27;4.90;99.90
5846;DHT22;2949;50.778;7.094;2023-02-01T00:40:53;5.00;99.90
5846;DHT22;2949;50.778;7.094;2023-02-01T00:43:19;5.10;99.90
5846;DHT22;2949;50.778;7.094;2023-02-01T00:45:46;5.10;99.90
5846;DHT22;2949;50.778;7.094;2023-02-01T00:48:12;5.10;99.90
5846;DHT22;2949;50.778;7.094;2023-02-01T00:50:43;5.10;99.90
5846;DHT22;2949;50.778;7.094;2023-02-01T00:53:12;5.20;99.90
5846;DHT22;2949;50.778;7.094;2023-02-01T00:55:37;5.20;99.90
5846;DHT22;2949;50.778;7.094;2023-02-01T00:58:03;5.40;99.90
5846;DHT22;2949;50.778;7.094;2023-02-01T01:00:32;5.50;99.90
5846;DHT22;2949;50.778;7.094;2023-02-01T01:02:57;5.50;99.90
5846;DHT22;2949;50.778;7.094;2023-02-01T01:05:23;5.60;99.90
5846;DHT22;2949;50.778;7.094;2023-02-01T01:07:49;5.70;99.90
5846;DHT22;2949;50.778;7.094;2023-02-01T01:10:15;5.70;99.90
5846;DHT22;2949;50.778;7.094;2023-02-01T01:12:40;5.80;99.90
5846;DHT22;2949;50.778;7.094;2023-02-01T01:15:07;5.80;99.90
5846;DHT22;2949;50.778;7.094;2023-02-01T01:17:33;5.80;99.90
5846;DHT22;2949;50.778;7.094;2023-02-01T01:19:58;5.80;99.90
5846;DHT22;2949;50.778;7.094;2023-02-01T01:22:24;5.80;99.90
5846;DHT22;2949;50.778;7.094;2023-02-01T01:24:49;5.80;99.90
5846;DHT22;2949;50.778;7.094;2023-02-01T01:27:15;5.80;99.90
5846;DHT22;2949;50.778;7.094;2023-02-01T01:29:40;5.80;99.90
5846;DHT22;2949;50.778;7.094;2023-02-01T01:32:06;5.80;99.90
5846;DHT22;2949;50.778;7.094;2023-02-01T01:34:31;5.70;99.90
5846;DHT22;2949;50.778;7.094;2023-02-01T01:36:57;5.70;99.90
5846;DHT22;2949;50.778;7.094;2023-02-01T01:39:23;5.70;99.90
5846;DHT22;2949;50.778;7.094;2023-02-01T01:41:48;5.70;99.90
5846;DHT22;2949;50.778;7.094;2023-02-01T01:47:17;5.70;99.90
5846;DHT22;2949;50.778;7.094;2023-02-01T01:49:43;5.70;99.90
5846;DHT22;2949;50.778;7.094;2023-02-01T01:52:09;5.80;99.90
5846;DHT22;2949;50.778;7.094;2023-02-01T01:54:41;5.70;99.90
5846;DHT22;2949;50.778;7.094;2023-02-01T01:57:13;5.70;99.90
5846;DHT22;2949;50.778;7.094;2023-02-01T01:59:41;5.70;99.90
5846;DHT22;2949;50.778;7.094;2023-02-01T02:02:08;5.70;99.90
5846;DHT22;2949;50.778;7.094;2023-02-01T02:04:34;5.70;99.90
5846;DHT22;2949;50.778;7.094;2023-02-01T02:07:04;5.70;99.90
5846;DHT22;2949;50.778;7.094;2023-02-01T02:09:30;5.60;99.90
5846;DHT22;2949;50.778;7.094;2023-02-01T02:11:56;5.60;99.90
5846;DHT22;2949;50.778;7.094;2023-02-01T02:14:23;5.60;99.90
5846;DHT22;2949;50.778;7.094;2023-02-01T02:28:13;5.50;99.90
5846;DHT22;2949;50.778;7.094;2023-02-01T02:33:56;5.40;99.90
5846;DHT22;2949;50.778;7.094;2023-02-01T02:42:17;5.30;99.90
5846;DHT22;2949;50.778;7.094;2023-02-01T02:45:22;5.30;99.90
5846;DHT22;2949;50.778;7.094;2023-02-01T02:48:24;5.30;99.90
5846;DHT22;2949;50.778;7.094;2023-02-01T02:51:05;5.30;99.90
5846;DHT22;2949;50.778;7.094;2023-02-01T02:56:42;5.30;99.90
5846;DHT22;2949;50.778;7.094;2023-02-01T02:59:28;5.30;99.90
5846;DHT22;2949;50.778;7.094;2023-02-01T03:02:16;5.40;99.90
5846;DHT22;2949;50.778;7.094;2023-02-01T03:05:01;5.40;99.90
5846;DHT22;2949;50.778;7.094;2023-02-01T03:07:46;5.40;99.90
5846;DHT22;2949;50.778;7.094;2023-02-01T03:13:31;5.50;99.90
5846;DHT22;2949;50.778;7.094;2023-02-01T03:16:26;5.50;99.90
5846;DHT22;2949;50.778;7.094;2023-02-01T03:19:20;5.50;99.90
5846;DHT22;2949;50.778;7.094;2023-02-01T03:22:02;5.50;99.90
5846;DHT22;2949;50.778;7.094;2023-02-01T03:24:37;5.50;99.90
5846;DHT22;2949;50.778;7.094;2023-02-01T03:29:48;5.50;99.90
5846;DHT22;2949;50.778;7.094;2023-02-01T03:32:15;5.50;99.90
5846;DHT22;2949;50.778;7.094;2023-02-01T03:34:41;5.50;99.90
5846;DHT22;2949;50.778;7.094;2023-02-01T03:37:10;5.40;99.90
5846;DHT22;2949;50.778;7.094;2023-02-01T03:42:18;5.50;99.90
5846;DHT22;2949;50.778;7.094;2023-02-01T03:45:04;5.50;99.90
5846;DHT22;2949;50.778;7.094;2023-02-01T03:47:36;5.50;99.90
5846;DHT22;2949;50.778;7.094;2023-02-01T03:50:24;5.50;99.90
5846;DHT22;2949;50.778;7.094;2023-02-01T03:52:51;5.60;99.90
5846;DHT22;2949;50.778;7.094;2023-02-01T03:55:20;5.60;99.90
5846;DHT22;2949;50.778;7.094;2023-02-01T03:57:56;5.60;99.90
5846;DHT22;2949;50.778;7.094;2023-02-01T04:00:24;5.60;99.90
5846;DHT22;2949;50.778;7.094;2023-02-01T04:02:51;5.70;99.90
5846;DHT22;2949;50.778;7.094;2023-02-01T04:05:17;5.80;99.90
5846;DHT22;2949;50.778;7.094;2023-02-01T04:07:43;5.70;99.90
5846;DHT22;2949;50.778;7.094;2023-02-01T04:10:09;5.60;99.90
5846;DHT22;2949;50.778;7.094;2023-02-01T04:12:35;5.60;99.90
5846;DHT22;2949;50.778;7.094;2023-02-01T04:15:01;5.40;99.90
5846;DHT22;2949;50.778;7.094;2023-02-01T04:17:26;5.40;99.90
5846;DHT22;2949;50.778;7.094;2023-02-01T04:19:52;5.30;99.90
5846;DHT22;2949;50.778;7.094;2023-02-01T04:22:17;5.30;99.90
5846;DHT22;2949;50.778;7.094;2023-02-01T04:24:43;5.20;99.90
5846;DHT22;2949;50.778;7.094;2023-02-01T04:27:08;5.20;99.90
5846;DHT22;2949;50.778;7.094;2023-02-01T04:29:34;5.20;99.90
5846;DHT22;2949;50.778;7.094;2023-02-01T04:31:59;5.30;99.90
5846;DHT22;2949;50.778;7.094;2023-02-01T04:34:25;5.40;99.90
5846;DHT22;2949;50.778;7.094;2023-02-01T04:36:51;5.40;99.90
5846;DHT22;2949;50.778;7.094;2023-02-01T04:39:17;5.40;99.90
5846;DHT22;2949;50.778;7.094;2023-02-01T04:41:42;5.50;99.90
5846;DHT22;2949;50.778;7.094;2023-02-01T04:44:14;5.40;99.90
5846;DHT22;2949;50.778;7.094;2023-02-01T04:46:40;5.40;99.90
5846;DHT22;2949;50.778;7.094;2023-02-01T04:49:05;5.50;99.90
5846;DHT22;2949;50.778;7.094;2023-02-01T04:51:31;5.50;99.90
5846;DHT22;2949;50.778;7.094;2023-02-01T04:53:57;5.50;99.90
5846;DHT22;2949;50.778;7.094;2023-02-01T04:56:23;5.50;99.90
5846;DHT22;2949;50.778;7.094;2023-02-01T04:58:48;5.50;99.90
5846;DHT22;2949;50.778;7.094;2023-02-01T05:01:14;5.50;99.90
5846;DHT22;2949;50.778;7.094;2023-02-01T05:03:39;5.50;99.90
5846;DHT22;2949;50.778;7.094;2023-02-01T05:06:05;5.50;99.90
5846;DHT22;2949;50.778;7.094;2023-02-01T05:08:31;5.40;99.90
5846;DHT22;2949;50.778;7.094;2023-02-01T05:10:56;5.20;99.90
5846;DHT22;2949;50.778;7.094;2023-02-01T05:13:22;5.10;99.90
5846;DHT22;2949;50.778;7.094;2023-02-01T05:16:06;5.00;99.90
5846;DHT22;2949;50.778;7.094;2023-02-01T05:18:32;4.80;99.90
5846;DHT22;2949;50.778;7.094;2023-02-01T05:20:57;4.80;99.90
5846;DHT22;2949;50.778;7.094;2023-02-01T05:23:23;4.70;99.90
5846;DHT22;2949;50.778;7.094;2023-02-01T05:25:48;4.70;99.90
5846;DHT22;2949;50.778;7.094;2023-02-01T05:28:14;4.70;99.90
5846;DHT22;2949;50.778;7.094;2023-02-01T05:30:39;4.70;99.90
5846;DHT22;2949;50.778;7.094;2023-02-01T05:33:05;4.60;99.90
5846;DHT22;2949;50.778;7.094;2023-02-01T05:35:31;4.60;99.90
5846;DHT22;2949;50.778;7.094;2023-02-01T05:37:57;4.60;99.90
5846;DHT22;2949;50.778;7.094;2023-02-01T05:40:22;4.70;99.90
5846;DHT22;2949;50.778;7.094;2023-02-01T05:42:48;4.60;99.90
5846;DHT22;2949;50.778;7.094;2023-02-01T05:45:13;4.60;99.90
5846;DHT22;2949;50.778;7.094;2023-02-01T05:47:39;4.50;99.90
5846;DHT22;2949;50.778;7.094;2023-02-01T05:50:05;4.50;99.90
5846;DHT22;2949;50.778;7.094;2023-02-01T05:52:31;4.40;99.90
5846;DHT22;2949;50.778;7.094;2023-02-01T05:54:57;4.30;99.90
5846;DHT22;2949;50.778;7.094;2023-02-01T05:57:23;4.30;99.90
5846;DHT22;2949;50.778;7.094;2023-02-01T05:59:48;4.20;99.90
5846;DHT22;2949;50.778;7.094;2023-02-01T06:02:15;4.20;99.90
5846;DHT22;2949;50.778;7.094;2023-02-01T06:04:40;4.20;99.90
5846;DHT22;2949;50.778;7.094;2023-02-01T06:07:07;4.10;99.90
5846;DHT22;2949;50.778;7.094;2023-02-01T06:09:33;4.10;99.90
5846;DHT22;2949;50.778;7.094;2023-02-01T06:11:59;4.10;99.90
5846;DHT22;2949;50.778;7.094;2023-02-01T06:14:26;4.20;99.90
5846;DHT22;2949;50.778;7.094;2023-02-01T06:16:53;4.30;99.90
5846;DHT22;2949;50.778;7.094;2023-02-01T06:19:18;4.40;99.90
5846;DHT22;2949;50.778;7.094;2023-02-01T06:21:44;4.50;99.90
5846;DHT22;2949;50.778;7.094;2023-02-01T06:24:09;4.60;99.90
5846;DHT22;2949;50.778;7.094;2023-02-01T06:26:35;4.60;99.90
5846;DHT22;2949;50.778;7.094;2023-02-01T06:29:01;4.60;99.90
5846;DHT22;2949;50.778;7.094;2023-02-01T06:31:27;4.50;99.90
5846;DHT22;2949;50.778;7.094;2023-02-01T06:33:52;4.50;99.90
5846;DHT22;2949;50.778;7.094;2023-02-01T06:36:19;4.50;99.90
5846;DHT22;2949;50.778;7.094;2023-02-01T06:38:47;4.40;99.90
5846;DHT22;2949;50.778;7.094;2023-02-01T06:41:12;4.40;99.90
5846;DHT22;2949;50.778;7.094;2023-02-01T06:43:38;4.50;99.90
5846;DHT22;2949;50.778;7.094;2023-02-01T06:46:06;4.50;99.90
5846;DHT22;2949;50.778;7.094;2023-02-01T06:48:32;4.60;99.90
5846;DHT22;2949;50.778;7.094;2023-02-01T06:50:58;4.60;99.90
5846;DHT22;2949;50.778;7.094;2023-02-01T06:53:24;4.60;99.90
5846;DHT22;2949;50.778;7.094;2023-02-01T06:56:01;4.70;99.90
5846;DHT22;2949;50.778;7.094;2023-02-01T06:58:29;4.70;99.90
5846;DHT22;2949;50.778;7.094;2023-02-01T07:00:54;4.80;99.90
5846;DHT22;2949;50.778;7.094;2023-02-01T07:03:20;4.80;99.90
5846;DHT22;2949;50.778;7.094;2023-02-01T07:05:45;4.90;99.90
5846;DHT22;2949;50.778;7.094;2023-02-01T07:08:11;4.80;99.90
5846;DHT22;2949;50.778;7.094;2023-02-01T07:10:37;4.80;99.90
5846;DHT22;2949;50.778;7.094;2023-02-01T07:13:02;4.80;99.90
5846;DHT22;2949;50.778;7.094;2023-02-01T07:15:28;4.80;99.90
5846;DHT22;2949;50.778;7.094;2023-02-01T07:17:56;4.70;99.90
5846;DHT22;2949;50.778;7.094;2023-02-01T07:20:22;4.70;99.90
5846;DHT22;2949;50.778;7.094;2023-02-01T07:22:48;4.70;99.90
5846;DHT22;2949;50.778;7.094;2023-02-01T07:25:13;4.70;99.90
5846;DHT22;2949;50.778;7.094;2023-02-01T07:27:39;4.70;99.90
5846;DHT22;2949;50.778;7.094;2023-02-01T07:30:05;4.70;99.90
5846;DHT22;2949;50.778;7.094;2023-02-01T07:32:31;4.80;99.90
5846;DHT22;2949;50.778;7.094;2023-02-01T07:34:57;4.80;99.90
5846;DHT22;2949;50.778;7.094;2023-02-01T07:37:23;4.90;99.90
5846;DHT22;2949;50.778;7.094;2023-02-01T07:39:53;4.90;99.90
5846;DHT22;2949;50.778;7.094;2023-02-01T07:42:18;5.00;99.90
5846;DHT22;2949;50.778;7.094;2023-02-01T07:44:44;5.10;99.90
5846;DHT22;2949;50.778;7.094;2023-02-01T07:47:10;5.20;99.90
5846;DHT22;2949;50.778;7.094;2023-02-01T07:49:35;5.30;99.90
5846;DHT22;2949;50.778;7.094;2023-02-01T07:52:01;5.40;99.90
5846;DHT22;2949;50.778;7.094;2023-02-01T07:54:26;5.50;99.90
5846;DHT22;2949;50.778;7.094;2023-02-01T07:56:52;5.60;99.90
5846;DHT22;2949;50.778;7.094;2023-02-01T07:59:17;5.60;99.90
5846;DHT22;2949;50.778;7.094;2023-02-01T08:01:43;5.70;99.90
5846;DHT22;2949;50.778;7.094;2023-02-01T08:04:11;5.80;99.90
5846;DHT22;2949;50.778;7.094;2023-02-01T08:06:37;5.80;99.90
5846;DHT22;2949;50.778;7.094;2023-02-01T08:09:04;5.80;99.90
5846;DHT22;2949;50.778;7.094;2023-02-01T08:11:30;5.80;99.90
5846;DHT22;2949;50.778;7.094;2023-02-01T08:13:56;5.90;99.90
5846;DHT22;2949;50.778;7.094;2023-02-01T08:16:23;6.00;99.90
5846;DHT22;2949;50.778;7.094;2023-02-01T08:18:49;6.10;99.90
5846;DHT22;2949;50.778;7.094;2023-02-01T08:21:17;6.10;99.90
5846;DHT22;2949;50.778;7.094;2023-02-01T08:23:43;6.10;99.90
5846;DHT22;2949;50.778;7.094;2023-02-01T08:26:17;6.10;99.90
5846;DHT22;2949;50.778;7.094;2023-02-01T08:28:49;6.10;99.90
5846;DHT22;2949;50.778;7.094;2023-02-01T08:31:17;6.10;99.90
5846;DHT22;2949;50.778;7.094;2023-02-01T08:33:47;6.10;99.90
5846;DHT22;2949;50.778;7.094;2023-02-01T08:36:13;6.00;99.90
5846;DHT22;2949;50.778;7.094;2023-02-01T08:38:39;6.10;99.90
5846;DHT22;2949;50.778;7.094;2023-02-01T08:41:10;6.10;99.90
5846;DHT22;2949;50.778;7.094;2023-02-01T08:43:36;6.20;99.90
5846;DHT22;2949;50.778;7.094;2023-02-01T08:46:03;6.20;99.90
5846;DHT22;2949;50.778;7.094;2023-02-01T08:48:30;6.20;99.90
5846;DHT22;2949;50.778;7.094;2023-02-01T08:50:56;6.30;99.90
5846;DHT22;2949;50.778;7.094;2023-02-01T08:53:23;6.40;99.90
5846;DHT22;2949;50.778;7.094;2023-02-01T08:55:48;6.40;99.90
5846;DHT22;2949;50.778;7.094;2023-02-01T08:58:14;6.50;99.90
5846;DHT22;2949;50.778;7.094;2023-02-01T09:00:42;6.60;99.90
5846;DHT22;2949;50.778;7.094;2023-02-01T09:03:10;6.60;99.90
5846;DHT22;2949;50.778;7.094;2023-02-01T09:05:36;6.50;99.90
5846;DHT22;2949;50.778;7.094;2023-02-01T09:08:01;6.60;99.90
5846;DHT22;2949;50.778;7.094;2023-02-01T09:10:27;6.60;99.90
5846;DHT22;2949;50.778;7.094;2023-02-01T09:12:53;6.70;99.90
5846;DHT22;2949;50.778;7.094;2023-02-01T09:15:18;6.80;99.90
5846;DHT22;2949;50.778;7.094;2023-02-01T09:17:44;6.90;99.90
5846;DHT22;2949;50.778;7.094;2023-02-01T09:20:10;7.00;99.90
5846;DHT22;2949;50.778;7.094;2023-02-01T09:22:35;7.10;99.90
5846;DHT22;2949;50.778;7.094;2023-02-01T09:25:01;7.20;99.90
5846;DHT22;2949;50.778;7.094;2023-02-01T09:27:26;7.30;99.90
5846;DHT22;2949;50.778;7.094;2023-02-01T09:29:52;7.50;99.90
5846;DHT22;2949;50.778;7.094;2023-02-01T09:32:22;7.70;99.90
5846;DHT22;2949;50.778;7.094;2023-02-01T09:34:48;7.80;99.90
5846;DHT22;2949;50.778;7.094;2023-02-01T09:37:14;7.80;99.90
5846;DHT22;2949;50.778;7.094;2023-02-01T09:39:40;7.80;99.90
5846;DHT22;2949;50.778;7.094;2023-02-01T09:42:21;7.70;99.90
5846;DHT22;2949;50.778;7.094;2023-02-01T09:47:47;7.30;99.90
5846;DHT22;2949;50.778;7.094;2023-02-01T09:50:22;7.30;99.90
5846;DHT22;2949;50.778;7.094;2023-02-01T09:55:39;7.10;99.90
5846;DHT22;2949;50.778;7.094;2023-02-01T09:58:13;7.20;99.90
5846;DHT22;2949;50.778;7.094;2023-02-01T10:00:40;7.10;99.90
5846;DHT22;2949;50.778;7.094;2023-02-01T10:03:11;7.20;99.90
5846;DHT22;2949;50.778;7.094;2023-02-01T10:06:00;7.30;99.90
5846;DHT22;2949;50.778;7.094;2023-02-01T10:08:33;7.40;99.90
5846;DHT22;2949;50.778;7.094;2023-02-01T10:16:49;7.40;99.90
5846;DHT22;2949;50.778;7.094;2023-02-01T10:19:29;7.50;99.90
5846;DHT22;2949;50.778;7.094;2023-02-01T10:22:04;7.60;99.90
5846;DHT22;2949;50.778;7.094;2023-02-01T10:24:39;7.70;99.90
5846;DHT22;2949;50.778;7.094;2023-02-01T10:27:19;7.80;99.90
5846;DHT22;2949;50.778;7.094;2023-02-01T10:29:53;7.90;99.90
5846;DHT22;2949;50.778;7.094;2023-02-01T10:32:31;8.20;99.90
5846;DHT22;2949;50.778;7.094;2023-02-01T10:34:59;8.90;99.90
5846;DHT22;2949;50.778;7.094;2023-02-01T10:37:31;9.00;99.90
5846;DHT22;2949;50.778;7.094;2023-02-01T10:40:01;9.00;99.90
5846;DHT22;2949;50.778;7.094;2023-02-01T10:42:28;9.10;99.90
5846;DHT22;2949;50.778;7.094;2023-02-01T10:44:56;10.30;99.90
5846;DHT22;2949;50.778;7.094;2023-02-01T10:47:24;11.10;99.90
5846;DHT22;2949;50.778;7.094;2023-02-01T10:49:56;11.30;99.90
5846;DHT22;2949;50.778;7.094;2023-02-01T10:55:25;11.70;99.90
5846;DHT22;2949;50.778;7.094;2023-02-01T10:57:59;11.50;99.90
5846;DHT22;2949;50.778;7.094;2023-02-01T11:00:25;11.10;99.90
5846;DHT22;2949;50.778;7.094;2023-02-01T11:02:51;10.80;99.90
5846;DHT22;2949;50.778;7.094;2023-02-01T11:05:17;10.60;99.90
5846;DHT22;2949;50.778;7.094;2023-02-01T11:07:53;10.30;99.90
5846;DHT22;2949;50.778;7.094;2023-02-01T11:10:40;10.50;99.90
5846;DHT22;2949;50.778;7.094;2023-02-01T11:13:14;10.70;99.90
5846;DHT22;2949;50.778;7.094;2023-02-01T11:15:44;10.60;99.90
5846;DHT22;2949;50.778;7.094;2023-02-01T11:18:19;10.60;99.90
5846;DHT22;2949;50.778;7.094;2023-02-01T11:20:46;11.10;99.90
5846;DHT22;2949;50.778;7.094;2023-02-01T11:23:20;11.10;99.90
5846;DHT22;2949;50.778;7.094;2023-02-01T11:25:58;10.70;99.90
5846;DHT22;2949;50.778;7.094;2023-02-01T11:28:30;10.50;99.90
5846;DHT22;2949;50.778;7.094;2023-02-01T11:31:00;10.30;99.90
5846;DHT22;2949;50.778;7.094;2023-02-01T11:33:31;9.80;99.90
5846;DHT22;2949;50.778;7.094;2023-02-01T11:36:00;9.50;99.90
5846;DHT22;2949;50.778;7.094;2023-02-01T11:38:31;9.30;99.90
5846;DHT22;2949;50.778;7.094;2023-02-01T11:41:35;9.20;99.90
5846;DHT22;2949;50.778;7.094;2023-02-01T11:44:26;9.10;99.90
5846;DHT22;2949;50.778;7.094;2023-02-01T11:46:54;9.00;99.90
5846;DHT22;2949;50.778;7.094;2023-02-01T11:49:25;9.00;99.90
5846;DHT22;2949;50.778;7.094;2023-02-01T11:52:06;9.10;99.90
5846;DHT22;2949;50.778;7.094;2023-02-01T11:54:39;9.20;99.90
5846;DHT22;2949;50.778;7.094;2023-02-01T12:02:44;9.10;99.90
5846;DHT22;2949;50.778;7.094;2023-02-01T12:11:16;8.60;99.90
5846;DHT22;2949;50.778;7.094;2023-02-01T12:16:31;8.40;99.90
5846;DHT22;2949;50.778;7.094;2023-02-01T12:19:23;8.20;99.90
5846;DHT22;2949;50.778;7.094;2023-02-01T12:22:03;8.20;99.90
5846;DHT22;2949;50.778;7.094;2023-02-01T12:24:50;8.20;99.90
5846;DHT22;2949;50.778;7.094;2023-02-01T12:36:21;8.10;99.90
5846;DHT22;2949;50.778;7.094;2023-02-01T12:39:02;8.10;99.90
5846;DHT22;2949;50.778;7.094;2023-02-01T12:47:18;8.60;99.90
5846;DHT22;2949;50.778;7.094;2023-02-01T12:49:52;8.60;99.90
5846;DHT22;2949;50.778;7.094;2023-02-01T12:53:06;8.60;99.90
5846;DHT22;2949;50.778;7.094;2023-02-01T12:58:18;8.30;99.90
5846;DHT22;2949;50.778;7.094;2023-02-01T13:00:50;8.30;99.90
5846;DHT22;2949;50.778;7.094;2023-02-01T13:03:35;8.40;99.90
5846;DHT22;2949;50.778;7.094;2023-02-01T13:06:02;8.50;99.90
5846;DHT22;2949;50.778;7.094;2023-02-01T13:09:02;8.50;99.90
5846;DHT22;2949;50.778;7.094;2023-02-01T13:11:37;8.50;99.90
5846;DHT22;2949;50.778;7.094;2023-02-01T13:14:27;8.50;99.90
5846;DHT22;2949;50.778;7.094;2023-02-01T13:17:04;8.60;99.90
5846;DHT22;2949;50.778;7.094;2023-02-01T13:19:56;8.50;99.90
5846;DHT22;2949;50.778;7.094;2023-02-01T13:22:31;8.40;99.90
5846;DHT22;2949;50.778;7.094;2023-02-01T13:27:55;8.20;99.90
5846;DHT22;2949;50.778;7.094;2023-02-01T13:30:25;8.00;99.90
5846;DHT22;2949;50.778;7.094;2023-02-01T13:41:58;7.80;99.90
5846;DHT22;2949;50.778;7.094;2023-02-01T13:44:45;7.80;99.90
5846;DHT22;2949;50.778;7.094;2023-02-01T13:47:38;7.80;99.90
5846;DHT22;2949;50.778;7.094;2023-02-01T13:50:19;7.70;99.90
5846;DHT22;2949;50.778;7.094;2023-02-01T13:52:52;7.70;99.90
5846;DHT22;2949;50.778;7.094;2023-02-01T13:55:26;7.70;99.90
5846;DHT22;2949;50.778;7.094;2023-02-01T13:58:12;7.70;99.90
5846;DHT22;2949;50.778;7.094;2023-02-01T14:00:39;7.60;99.90
5846;DHT22;2949;50.778;7.094;2023-02-01T14:10:53;7.60;99.90
5846;DHT22;2949;50.778;7.094;2023-02-01T14:21:22;7.70;99.90
5846;DHT22;2949;50.778;7.094;2023-02-01T14:26:25;7.70;99.90
5846;DHT22;2949;50.778;7.094;2023-02-01T14:31:40;7.80;99.90
5846;DHT22;2949;50.778;7.094;2023-02-01T14:34:16;7.80;99.90
5846;DHT22;2949;50.778;7.094;2023-02-01T14:37:05;7.80;99.90
5846;DHT22;2949;50.778;7.094;2023-02-01T14:39:54;7.80;99.90
5846;DHT22;2949;50.778;7.094;2023-02-01T14:42:44;7.90;99.90
5846;DHT22;2949;50.778;7.094;2023-02-01T14:53:22;8.00;99.90
5846;DHT22;2949;50.778;7.094;2023-02-01T14:56:04;8.00;99.90
5846;DHT22;2949;50.778;7.094;2023-02-01T14:58:55;8.00;99.90
5846;DHT22;2949;50.778;7.094;2023-02-01T15:04:38;8.00;99.90
5846;DHT22;2949;50.778;7.094;2023-02-01T15:06:53;8.00;99.90
5846;DHT22;2949;50.778;7.094;2023-02-01T15:09:38;8.00;99.90
5846;DHT22;2949;50.778;7.094;2023-02-01T15:14:40;7.90;99.90
5846;DHT22;2949;50.778;7.094;2023-02-01T15:17:28;7.90;99.90
5846;DHT22;2949;50.778;7.094;2023-02-01T15:20:14;8.00;99.90
5846;DHT22;2949;50.778;7.094;2023-02-01T15:22:41;8.00;99.90
5846;DHT22;2949;50.778;7.094;2023-02-01T15:25:33;8.00;99.90
5846;DHT22;2949;50.778;7.094;2023-02-01T15:28:00;8.00;99.90
5846;DHT22;2949;50.778;7.094;2023-02-01T15:30:33;8.00;99.90
5846;DHT22;2949;50.778;7.094;2023-02-01T15:35:50;8.00;99.90
5846;DHT22;2949;50.778;7.094;2023-02-01T15:38:21;8.00;99.90
5846;DHT22;2949;50.778;7.094;2023-02-01T15:41:08;8.00;99.90
5846;DHT22;2949;50.778;7.094;2023-02-01T15:43:41;7.90;99.90
5846;DHT22;2949;50.778;7.094;2023-02-01T15:46:10;7.90;99.90
5846;DHT22;2949;50.778;7.094;2023-02-01T15:48:49;7.90;99.90
5846;DHT22;2949;50.778;7.094;2023-02-01T15:51:24;7.90;99.90
5846;DHT22;2949;50.778;7.094;2023-02-01T15:53:57;7.90;99.90
5846;DHT22;2949;50.778;7.094;2023-02-01T15:56:34;7.90;99.90
5846;DHT22;2949;50.778;7.094;2023-02-01T15:59:03;7.90;99.90
5846;DHT22;2949;50.778;7.094;2023-02-01T16:01:30;7.90;99.90
5846;DHT22;2949;50.778;7.094;2023-02-01T16:04:23;7.90;99.90
5846;DHT22;2949;50.778;7.094;2023-02-01T16:06:54;7.80;99.90
5846;DHT22;2949;50.778;7.094;2023-02-01T16:09:22;7.80;99.90
5846;DHT22;2949;50.778;7.094;2023-02-01T16:14:20;7.70;99.90
5846;DHT22;2949;50.778;7.094;2023-02-01T16:16:45;7.60;99.90
5846;DHT22;2949;50.778;7.094;2023-02-01T16:19:11;7.50;99.90
5846;DHT22;2949;50.778;7.094;2023-02-01T16:21:36;7.50;99.90
5846;DHT22;2949;50.778;7.094;2023-02-01T16:24:02;7.40;99.90
5846;DHT22;2949;50.778;7.094;2023-02-01T16:26:30;7.40;99.90
5846;DHT22;2949;50.778;7.094;2023-02-01T16:28:58;7.30;99.90
5846;DHT22;2949;50.778;7.094;2023-02-01T16:31:29;7.30;99.90
5846;DHT22;2949;50.778;7.094;2023-02-01T16:33:58;7.20;99.90
5846;DHT22;2949;50.778;7.094;2023-02-01T16:36:27;7.20;99.90
5846;DHT22;2949;50.778;7.094;2023-02-01T16:38:54;7.10;99.90
5846;DHT22;2949;50.778;7.094;2023-02-01T16:41:24;7.00;99.90
5846;DHT22;2949;50.778;7.094;2023-02-01T16:43:54;6.90;99.90
5846;DHT22;2949;50.778;7.094;2023-02-01T16:46:22;6.90;99.90
5846;DHT22;2949;50.778;7.094;2023-02-01T16:48:53;6.80;99.90
5846;DHT22;2949;50.778;7.094;2023-02-01T16:51:19;6.70;99.90
5846;DHT22;2949;50.778;7.094;2023-02-01T16:53:45;6.60;99.90
5846;DHT22;2949;50.778;7.094;2023-02-01T16:56:17;6.60;99.90
5846;DHT22;2949;50.778;7.094;2023-02-01T16:58:43;6.50;99.90
5846;DHT22;2949;50.778;7.094;2023-02-01T17:01:10;6.50;99.90
5846;DHT22;2949;50.778;7.094;2023-02-01T17:03:36;6.40;99.90
5846;DHT22;2949;50.778;7.094;2023-02-01T17:06:03;6.40;99.90
5846;DHT22;2949;50.778;7.094;2023-02-01T17:08:32;6.30;99.90
5846;DHT22;2949;50.778;7.094;2023-02-01T17:10:58;6.30;99.90
5846;DHT22;2949;50.778;7.094;2023-02-01T17:13:23;6.30;99.90
5846;DHT22;2949;50.778;7.094;2023-02-01T17:16:36;6.20;99.90
5846;DHT22;2949;50.778;7.094;2023-02-01T17:18:37;6.20;99.90
5846;DHT22;2949;50.778;7.094;2023-02-01T17:21:04;6.20;99.90
5846;DHT22;2949;50.778;7.094;2023-02-01T17:23:31;6.20;99.90
5846;DHT22;2949;50.778;7.094;2023-02-01T17:25:57;6.30;99.90
5846;DHT22;2949;50.778;7.094;2023-02-01T17:28:23;6.20;99.90
5846;DHT22;2949;50.778;7.094;2023-02-01T17:30:49;6.20;99.90
5846;DHT22;2949;50.778;7.094;2023-02-01T17:33:25;6.20;99.90
5846;DHT22;2949;50.778;7.094;2023-02-01T17:35:54;6.20;99.90
5846;DHT22;2949;50.778;7.094;2023-02-01T17:38:21;6.30;99.90
5846;DHT22;2949;50.778;7.094;2023-02-01T17:40:47;6.30;99.90
5846;DHT22;2949;50.778;7.094;2023-02-01T17:43:14;6.20;99.90
5846;DHT22;2949;50.778;7.094;2023-02-01T17:45:47;6.30;99.90
5846;DHT22;2949;50.778;7.094;2023-02-01T17:48:17;6.20;99.90
5846;DHT22;2949;50.778;7.094;2023-02-01T17:50:44;6.20;99.90
5846;DHT22;2949;50.778;7.094;2023-02-01T17:53:11;6.20;99.90
5846;DHT22;2949;50.778;7.094;2023-02-01T17:55:42;6.20;99.90
5846;DHT22;2949;50.778;7.094;2023-02-01T17:58:13;6.30;99.90
5846;DHT22;2949;50.778;7.094;2023-02-01T18:00:40;6.20;99.90
5846;DHT22;2949;50.778;7.094;2023-02-01T18:03:06;6.20;99.90
5846;DHT22;2949;50.778;7.094;2023-02-01T18:05:41;6.20;99.90
5846;DHT22;2949;50.778;7.094;2023-02-01T18:08:08;6.20;99.90
5846;DHT22;2949;50.778;7.094;2023-02-01T18:10:34;6.20;99.90
5846;DHT22;2949;50.778;7.094;2023-02-01T18:13:01;6.20;99.90
5846;DHT22;2949;50.778;7.094;2023-02-01T18:15:28;6.20;99.90
5846;DHT22;2949;50.778;7.094;2023-02-01T18:17:54;6.30;99.90
5846;DHT22;2949;50.778;7.094;2023-02-01T18:20:23;6.40;99.90
5846;DHT22;2949;50.778;7.094;2023-02-01T18:22:49;6.40;99.90
5846;DHT22;2949;50.778;7.094;2023-02-01T18:25:18;6.40;99.90
5846;DHT22;2949;50.778;7.094;2023-02-01T18:27:46;6.40;99.90
5846;DHT22;2949;50.778;7.094;2023-02-01T18:30:12;6.40;99.90
5846;DHT22;2949;50.778;7.094;2023-02-01T18:32:38;6.40;99.90
5846;DHT22;2949;50.778;7.094;2023-02-01T18:35:22;6.40;99.90
5846;DHT22;2949;50.778;7.094;2023-02-01T18:37:49;6.40;99.90
5846;DHT22;2949;50.778;7.094;2023-02-01T18:40:21;6.40;99.90
5846;DHT22;2949;50.778;7.094;2023-02-01T18:42:47;6.40;99.90
5846;DHT22;2949;50.778;7.094;2023-02-01T18:45:34;6.40;99.90
5846;DHT22;2949;50.778;7.094;2023-02-01T18:48:00;6.50;99.90
5846;DHT22;2949;50.778;7.094;2023-02-01T18:50:29;6.50;99.90